Time;durP1;ratioP1;P1;durP2;ratioP2;P2;SDS_P1;SDS_P2;PMS_P1;PMS_P2;Temp;Humidity;BMP_temperature;BMP_pressure;BME280_temperature;BME280_humidity;BME280_pressure;Samples;Min_cycle;Max_cycle;Signal;HPM_P1;HPM_P2
2021/05/16 00:01:29;;;;;;;10.43;9.00;;;17.10;99.90;;;;;;4921402;29;20027;-76
2021/05/16 00:03:55;;;;;;;15.93;10.02;;;17.10;99.90;;;;;;4938680;29;20083;-76
2021/05/16 00:06:22;;;;;;;11.63;9.20;;;17.10;99.90;;;;;;4938418;29;20020;-77
2021/05/16 00:08:48;;;;;;;12.60;9.20;;;17.10;99.90;;;;;;4938499;29;20076;-77
2021/05/16 00:11:14;;;;;;;11.63;10.43;;;17.10;99.90;;;;;;4938180;29;20038;-74
2021/05/16 00:13:40;;;;;;;13.60;9.63;;;17.00;99.90;;;;;;4938450;29;20028;-76
2021/05/16 00:16:08;;;;;;;10.35;9.30;;;17.00;99.90;;;;;;4937875;29;20023;-76
2021/05/16 00:18:33;;;;;;;9.93;8.93;;;16.90;99.90;;;;;;4938004;29;20024;-76
2021/05/16 00:21:00;;;;;;;11.98;9.35;;;16.90;99.90;;;;;;4920483;29;20034;-76
2021/05/16 00:23:26;;;;;;;10.73;8.90;;;16.80;99.90;;;;;;4937518;29;20081;-74
2021/05/16 00:25:52;;;;;;;12.38;9.40;;;16.90;99.90;;;;;;4920925;29;20028;-75
2021/05/16 00:28:18;;;;;;;10.55;9.48;;;16.80;99.90;;;;;;4937765;29;20070;-74
2021/05/16 00:30:44;;;;;;;12.02;9.52;;;16.80;99.90;;;;;;4920699;29;20031;-73
2021/05/16 00:33:10;;;;;;;15.20;9.38;;;16.80;99.90;;;;;;4937955;29;20020;-76
2021/05/16 00:35:36;;;;;;;11.85;8.48;;;16.70;99.90;;;;;;4936772;29;20078;-77
2021/05/16 00:38:03;;;;;;;12.68;8.57;;;16.70;99.90;;;;;;4937904;29;20019;-76
2021/05/16 00:40:31;;;;;;;9.77;7.78;;;16.80;99.90;;;;;;4937678;29;20106;-76
2021/05/16 00:42:57;;;;;;;9.38;8.27;;;16.70;99.90;;;;;;4938004;29;20102;-77
2021/05/16 00:45:27;;;;;;;11.80;8.70;;;16.70;99.90;;;;;;4937679;29;20378;-76
2021/05/16 00:48:00;;;;;;;10.70;8.90;;;16.70;99.90;;;;;;4937542;29;20015;-76
2021/05/16 00:50:29;;;;;;;11.23;8.48;;;16.70;99.90;;;;;;4937788;29;20028;-74
2021/05/16 00:52:55;;;;;;;10.80;8.82;;;16.70;99.90;;;;;;4938065;29;20024;-76
2021/05/16 00:55:22;;;;;;;11.00;8.82;;;16.60;99.90;;;;;;4937666;29;20032;-74
2021/05/16 00:57:49;;;;;;;13.82;8.68;;;16.60;99.90;;;;;;4937736;29;20030;-74
2021/05/16 01:00:18;;;;;;;10.30;8.75;;;16.70;99.90;;;;;;4919853;29;20503;-74
2021/05/16 01:02:44;;;;;;;10.35;7.82;;;16.70;99.90;;;;;;4919306;29;20027;-75
2021/05/16 01:05:13;;;;;;;10.13;7.85;;;16.70;99.90;;;;;;4919899;29;20143;-76
2021/05/16 01:07:39;;;;;;;9.23;7.80;;;16.70;99.90;;;;;;4937496;29;20024;-74
2021/05/16 01:10:08;;;;;;;10.43;7.70;;;16.80;99.90;;;;;;4937505;29;20027;-74
2021/05/16 01:12:48;;;;;;;11.93;8.02;;;16.70;99.90;;;;;;4919114;29;20035;-74
2021/05/16 01:15:20;;;;;;;13.73;8.00;;;16.60;99.90;;;;;;4936759;29;20086;-74
2021/05/16 01:17:46;;;;;;;10.90;7.72;;;16.60;99.90;;;;;;4937087;29;20035;-74
2021/05/16 01:20:23;;;;;;;12.88;8.70;;;16.50;99.90;;;;;;4936136;29;20058;-74
2021/05/16 01:22:55;;;;;;;12.60;8.85;;;16.50;99.90;;;;;;4937111;29;20035;-76
2021/05/16 01:25:21;;;;;;;12.48;8.77;;;16.50;99.90;;;;;;4935635;29;20028;-75
2021/05/16 01:27:47;;;;;;;10.95;8.48;;;16.40;99.90;;;;;;4936355;29;20083;-76
2021/05/16 01:30:14;;;;;;;13.07;9.07;;;16.50;99.90;;;;;;4937075;29;20055;-74
2021/05/16 01:32:40;;;;;;;10.80;9.68;;;16.50;99.90;;;;;;4936725;29;20110;-77
2021/05/16 01:35:07;;;;;;;10.30;8.70;;;16.40;99.90;;;;;;4937275;29;20586;-74
2021/05/16 01:37:34;;;;;;;10.35;8.40;;;16.30;99.90;;;;;;4936265;29;20087;-76
2021/05/16 01:40:01;;;;;;;11.60;8.75;;;16.40;99.90;;;;;;4936147;29;20026;-76
2021/05/16 01:42:27;;;;;;;14.07;9.73;;;16.30;99.90;;;;;;4935663;29;20032;-76
2021/05/16 01:44:56;;;;;;;11.40;8.30;;;16.20;99.90;;;;;;4936738;29;20020;-74
2021/05/16 01:47:22;;;;;;;9.70;7.47;;;16.30;99.90;;;;;;4936133;29;20438;-73
2021/05/16 01:49:51;;;;;;;11.45;7.68;;;16.30;99.90;;;;;;4936867;29;20023;-74
2021/05/16 01:52:17;;;;;;;9.43;7.22;;;16.40;99.90;;;;;;4937244;29;20042;-77
2021/05/16 01:54:43;;;;;;;17.45;7.60;;;16.30;99.90;;;;;;4919185;29;20386;-74
2021/05/16 01:57:09;;;;;;;9.70;7.70;;;16.30;99.90;;;;;;4935903;29;20020;-74
2021/05/16 01:59:37;;;;;;;8.43;7.10;;;16.30;99.90;;;;;;4918614;29;20082;-74
2021/05/16 02:02:04;;;;;;;11.20;7.45;;;16.30;99.90;;;;;;4934451;29;20049;-73
2021/05/16 02:04:32;;;;;;;9.13;7.85;;;16.30;99.90;;;;;;4936534;29;20031;-74
2021/05/16 02:06:59;;;;;;;12.50;7.72;;;16.30;99.90;;;;;;4936540;29;20024;-74
2021/05/16 02:09:27;;;;;;;9.10;7.90;;;16.40;99.90;;;;;;4936477;29;20016;-74
2021/05/16 02:11:54;;;;;;;12.15;8.25;;;16.30;99.90;;;;;;4935946;29;20043;-76
2021/05/16 02:14:30;;;;;;;12.20;7.70;;;16.40;99.90;;;;;;4917500;29;20039;-76
2021/05/16 02:16:58;;;;;;;11.20;8.10;;;16.40;99.90;;;;;;4936101;29;20028;-76
2021/05/16 02:19:25;;;;;;;9.32;8.23;;;16.40;99.90;;;;;;4918833;29;20493;-74
2021/05/16 02:21:51;;;;;;;9.23;7.90;;;16.40;99.90;;;;;;4918977;29;20032;-76
2021/05/16 02:24:18;;;;;;;14.75;8.57;;;16.40;99.90;;;;;;4936300;29;20019;-76
2021/05/16 02:26:45;;;;;;;12.65;8.98;;;16.30;99.90;;;;;;4919020;29;20123;-75
2021/05/16 02:29:11;;;;;;;10.90;8.85;;;16.20;99.90;;;;;;4915669;29;20048;-75
2021/05/16 02:31:37;;;;;;;9.93;8.93;;;16.30;99.90;;;;;;4916760;29;20550;-75
2021/05/16 02:34:04;;;;;;;9.98;8.98;;;16.10;99.90;;;;;;4917410;29;20028;-75
2021/05/16 02:36:30;;;;;;;12.15;9.63;;;16.10;99.90;;;;;;4917114;29;20491;-74
2021/05/16 02:38:57;;;;;;;11.57;8.55;;;16.00;99.90;;;;;;4922067;29;20471;-74
2021/05/16 02:41:26;;;;;;;10.57;9.52;;;16.00;99.90;;;;;;4936529;29;20354;-76
2021/05/16 02:43:52;;;;;;;11.18;8.43;;;16.00;99.90;;;;;;4920203;29;20138;-75
2021/05/16 02:46:18;;;;;;;11.75;9.32;;;15.90;99.90;;;;;;4916753;29;20028;-74
2021/05/16 02:48:44;;;;;;;10.40;9.10;;;15.90;99.90;;;;;;4916975;29;20039;-75
2021/05/16 02:51:10;;;;;;;12.23;9.25;;;15.80;99.90;;;;;;4915604;29;20036;-74
2021/05/16 02:53:36;;;;;;;11.60;8.77;;;15.70;99.90;;;;;;4915613;29;20035;-76
2021/05/16 02:56:03;;;;;;;10.55;9.00;;;15.70;99.90;;;;;;4916711;29;20024;-74
2021/05/16 02:58:29;;;;;;;11.75;8.30;;;15.70;99.90;;;;;;4916943;29;20024;-74
2021/05/16 03:00:55;;;;;;;12.50;8.32;;;15.70;99.90;;;;;;4920716;29;20017;-73
2021/05/16 03:03:21;;;;;;;12.38;8.27;;;15.70;99.90;;;;;;4920580;29;20363;-76
2021/05/16 03:05:48;;;;;;;9.95;8.43;;;15.70;99.90;;;;;;4920337;29;20435;-75
2021/05/16 03:08:14;;;;;;;9.40;8.38;;;15.70;99.90;;;;;;4920512;29;20035;-75
2021/05/16 03:10:40;;;;;;;10.00;8.85;;;15.70;99.90;;;;;;4920150;29;20028;-74
2021/05/16 03:13:06;;;;;;;11.55;8.30;;;15.70;99.90;;;;;;4920548;29;20056;-75
2021/05/16 03:15:32;;;;;;;9.80;8.20;;;15.70;99.90;;;;;;4920332;29;20024;-76
2021/05/16 03:17:58;;;;;;;10.82;8.40;;;15.70;99.90;;;;;;4920408;29;20348;-74
2021/05/16 03:20:24;;;;;;;10.93;8.38;;;15.70;99.90;;;;;;4919804;29;20028;-76
2021/05/16 03:22:50;;;;;;;11.65;8.20;;;15.90;99.90;;;;;;4920154;29;20044;-76
2021/05/16 03:25:16;;;;;;;9.38;8.38;;;15.80;99.90;;;;;;4919919;29;20023;-74
2021/05/16 03:27:43;;;;;;;10.27;9.07;;;15.80;99.90;;;;;;4923987;29;20047;-74
2021/05/16 03:30:11;;;;;;;9.40;8.50;;;15.80;99.90;;;;;;4938996;29;20032;-76
2021/05/16 03:32:39;;;;;;;9.13;8.18;;;15.80;99.90;;;;;;4921537;29;20091;-76
2021/05/16 03:35:06;;;;;;;10.73;8.85;;;15.80;99.90;;;;;;4939187;29;20375;-74
2021/05/16 03:37:32;;;;;;;11.50;8.80;;;15.90;99.90;;;;;;4939110;29;20430;-74
2021/05/16 03:39:58;;;;;;;9.60;8.65;;;15.90;99.90;;;;;;4921388;29;20505;-76
2021/05/16 03:42:24;;;;;;;11.57;9.20;;;15.90;99.90;;;;;;4921371;29;20027;-74
2021/05/16 03:44:53;;;;;;;11.63;10.00;;;16.00;99.90;;;;;;4938712;29;20035;-77
2021/05/16 03:47:19;;;;;;;12.13;9.63;;;16.00;99.90;;;;;;4938903;29;20034;-76
2021/05/16 03:49:45;;;;;;;12.85;9.27;;;16.10;99.90;;;;;;4938586;29;20028;-76
2021/05/16 03:52:11;;;;;;;12.05;10.57;;;16.10;99.90;;;;;;4921846;29;20117;-77
2021/05/16 03:54:40;;;;;;;12.70;10.60;;;16.10;99.90;;;;;;4938719;29;20038;-76
2021/05/16 03:57:11;;;;;;;12.43;10.35;;;16.10;99.90;;;;;;4938592;29;20027;-74
2021/05/16 03:59:37;;;;;;;11.90;10.43;;;16.20;99.90;;;;;;4938731;29;20024;-74
2021/05/16 04:02:03;;;;;;;12.68;10.45;;;16.20;99.90;;;;;;4938961;29;20019;-76
2021/05/16 04:04:29;;;;;;;10.75;9.57;;;16.20;99.90;;;;;;4938833;29;20020;-76
2021/05/16 04:06:55;;;;;;;12.80;10.68;;;16.20;99.90;;;;;;4938317;29;20032;-76
2021/05/16 04:09:21;;;;;;;13.10;10.82;;;16.20;99.90;;;;;;4938402;29;20023;-76
2021/05/16 04:11:47;;;;;;;14.10;11.25;;;16.20;99.90;;;;;;4938303;29;20034;-74
2021/05/16 04:14:17;;;;;;;13.70;10.70;;;16.10;99.90;;;;;;4921103;29;20557;-76
2021/05/16 04:16:43;;;;;;;12.63;10.85;;;16.10;99.90;;;;;;4921208;29;20562;-75
2021/05/16 04:19:09;;;;;;;12.27;10.32;;;16.20;99.90;;;;;;4938259;29;20449;-73
2021/05/16 04:21:35;;;;;;;14.15;10.40;;;16.10;99.90;;;;;;4921168;29;20016;-74
2021/05/16 04:24:01;;;;;;;11.60;9.82;;;16.20;99.90;;;;;;4921034;29;20091;-75
2021/05/16 04:26:26;;;;;;;12.27;9.60;;;16.20;99.90;;;;;;4938034;29;20028;-77
2021/05/16 04:29:02;;;;;;;13.88;9.95;;;16.30;99.90;;;;;;4937648;29;20055;-76
2021/05/16 04:31:28;;;;;;;12.23;11.02;;;16.20;99.90;;;;;;4938083;29;20138;-75
2021/05/16 04:33:54;;;;;;;12.77;11.32;;;16.30;99.90;;;;;;4938048;29;20561;-76
2021/05/16 04:36:20;;;;;;;13.95;10.95;;;16.40;99.90;;;;;;4920852;29;20038;-76
2021/05/16 04:38:48;;;;;;;13.27;10.43;;;16.40;99.90;;;;;;4937963;29;20030;-75
2021/05/16 04:41:14;;;;;;;15.02;10.80;;;16.40;99.90;;;;;;4938224;29;20026;-77
2021/05/16 04:43:41;;;;;;;11.13;10.02;;;16.30;99.90;;;;;;4938020;29;20027;-74
2021/05/16 04:46:12;;;;;;;11.32;9.77;;;16.40;99.90;;;;;;4920447;29;20051;-75
2021/05/16 04:48:40;;;;;;;11.75;10.55;;;16.50;99.90;;;;;;4937983;29;20091;-74
2021/05/16 04:51:06;;;;;;;11.23;9.63;;;16.50;99.90;;;;;;4937612;29;20427;-76
2021/05/16 04:53:34;;;;;;;14.23;11.27;;;16.50;99.90;;;;;;4937490;29;20086;-72
2021/05/16 04:56:01;;;;;;;14.15;11.88;;;16.50;99.90;;;;;;4937828;29;20050;-75
2021/05/16 04:58:37;;;;;;;12.90;11.50;;;16.60;99.90;;;;;;4937644;29;20020;-75
2021/05/16 05:01:06;;;;;;;14.00;12.13;;;16.60;99.90;;;;;;4937964;29;20027;-76
2021/05/16 05:03:33;;;;;;;16.23;12.45;;;16.70;99.90;;;;;;4937097;29;20027;-75
2021/05/16 05:05:59;;;;;;;14.15;11.25;;;16.70;99.90;;;;;;4937208;29;20344;-73
2021/05/16 05:08:26;;;;;;;11.50;10.32;;;16.70;99.90;;;;;;4937343;29;20159;-75
2021/05/16 05:10:53;;;;;;;10.80;9.60;;;16.70;99.90;;;;;;4937367;29;20114;-73
2021/05/16 05:13:19;;;;;;;10.15;9.02;;;16.80;99.90;;;;;;4936347;29;20024;-77
2021/05/16 05:15:46;;;;;;;10.93;9.75;;;16.80;99.90;;;;;;4920239;29;20028;-76
2021/05/16 05:18:12;;;;;;;11.65;10.25;;;16.90;99.90;;;;;;4937041;29;20030;-75
2021/05/16 05:20:38;;;;;;;12.00;10.80;;;;;;;;;;4936990;29;20020;-75
2021/05/16 05:23:04;;;;;;;11.15;8.10;;;16.90;99.90;;;;;;4936497;29;20035;-73
2021/05/16 05:25:30;;;;;;;10.85;9.85;;;17.00;99.90;;;;;;4937420;29;20028;-76
2021/05/16 05:27:56;;;;;;;11.38;10.27;;;17.00;99.90;;;;;;4936772;29;20059;-73
2021/05/16 05:30:25;;;;;;;12.02;8.63;;;17.00;99.90;;;;;;4936726;29;20031;-75
2021/05/16 05:32:51;;;;;;;12.13;8.48;;;17.00;99.90;;;;;;4936977;29;20028;-76
2021/05/16 05:35:17;;;;;;;11.10;9.40;;;16.90;99.90;;;;;;4937341;29;20046;-76
2021/05/16 05:37:44;;;;;;;11.25;9.73;;;16.90;99.90;;;;;;4936907;29;20023;-76
2021/05/16 05:40:11;;;;;;;11.63;10.20;;;16.90;99.90;;;;;;4937043;29;20060;-73
2021/05/16 05:42:37;;;;;;;11.48;9.70;;;16.80;99.90;;;;;;4936685;29;20024;-77
2021/05/16 05:45:05;;;;;;;10.88;8.35;;;16.90;99.90;;;;;;4936910;29;20355;-76
2021/05/16 05:47:31;;;;;;;12.63;10.23;;;16.90;99.90;;;;;;4936427;29;20116;-73
2021/05/16 05:49:57;;;;;;;14.73;12.95;;;17.00;99.90;;;;;;4936522;29;20024;-74
2021/05/16 05:52:23;;;;;;;19.92;16.67;;;16.90;99.90;;;;;;4936728;29;20471;-74
2021/05/16 05:54:49;;;;;;;14.35;11.93;;;16.80;99.90;;;;;;4936894;29;20378;-74
2021/05/16 05:57:15;;;;;;;13.77;9.88;;;16.90;99.90;;;;;;4936853;29;20023;-74
2021/05/16 05:59:41;;;;;;;13.23;9.23;;;17.00;99.90;;;;;;4936606;29;20022;-75
2021/05/16 06:02:08;;;;;;;10.68;8.00;;;17.00;99.90;;;;;;4936531;29;20024;-75
2021/05/16 06:04:34;;;;;;;13.02;8.80;;;17.00;99.90;;;;;;4936212;29;20098;-75
2021/05/16 06:07:01;;;;;;;10.48;8.25;;;17.00;99.90;;;;;;4936159;29;20032;-76
2021/05/16 06:09:27;;;;;;;9.35;6.80;;;17.00;99.90;;;;;;4936522;29;20098;-75
2021/05/16 06:11:54;;;;;;;9.00;7.47;;;17.20;99.90;;;;;;4936558;29;20426;-76
2021/05/16 06:14:20;;;;;;;8.57;7.50;;;17.20;99.90;;;;;;4936037;29;20023;-75
2021/05/16 06:16:46;;;;;;;10.65;7.97;;;17.30;99.90;;;;;;4935756;29;20378;-76
2021/05/16 06:19:12;;;;;;;10.70;7.70;;;17.40;99.90;;;;;;4936701;29;20032;-75
2021/05/16 06:21:38;;;;;;;8.70;7.43;;;17.30;99.90;;;;;;4919084;29;20375;-73
2021/05/16 06:24:08;;;;;;;9.25;7.72;;;17.40;99.90;;;;;;4936375;29;20028;-74
2021/05/16 06:26:36;;;;;;;8.55;7.50;;;17.40;99.90;;;;;;4936350;29;20035;-74
2021/05/16 06:29:07;;;;;;;8.35;6.55;;;17.40;99.90;;;;;;4935982;29;20098;-74
2021/05/16 06:31:34;;;;;;;11.10;8.23;;;17.60;99.90;;;;;;4936384;29;20090;-75
2021/05/16 06:34:00;;;;;;;10.00;7.20;;;17.70;99.90;;;;;;4938614;29;20043;-75
2021/05/16 06:36:27;;;;;;;8.57;5.70;;;17.60;99.90;;;;;;4940255;29;20016;-76
2021/05/16 06:38:53;;;;;;;9.27;6.82;;;17.70;99.90;;;;;;4923019;29;20105;-75
2021/05/16 06:41:21;;;;;;;7.70;6.57;;;18.00;99.90;;;;;;4939638;29;20019;-73
2021/05/16 06:43:48;;;;;;;7.55;6.47;;;18.10;99.90;;;;;;4940171;29;20490;-76
2021/05/16 06:46:14;;;;;;;6.60;5.93;;;18.20;99.90;;;;;;4939997;29;20060;-77
2021/05/16 06:48:40;;;;;;;8.43;6.13;;;18.40;99.90;;;;;;4939866;29;20110;-73
2021/05/16 06:51:06;;;;;;;5.75;5.07;;;18.30;99.90;;;;;;4939947;29;20064;-74
2021/05/16 06:53:33;;;;;;;8.70;6.13;;;18.30;99.90;;;;;;4939607;29;20103;-74
2021/05/16 06:55:59;;;;;;;6.88;5.50;;;18.40;99.90;;;;;;4939594;29;20039;-75
2021/05/16 06:58:25;;;;;;;11.05;5.60;;;18.30;99.90;;;;;;4922454;29;20024;-73
2021/05/16 07:00:51;;;;;;;7.97;5.18;;;18.10;99.90;;;;;;4922346;29;20075;-73
2021/05/16 07:03:17;;;;;;;6.68;5.18;;;18.10;99.90;;;;;;4939501;29;20026;-74
2021/05/16 07:05:43;;;;;;;7.57;5.20;;;18.00;99.90;;;;;;4939410;29;20055;-75
2021/05/16 07:08:09;;;;;;;6.38;3.38;;;17.90;99.90;;;;;;4939501;29;20024;-74
2021/05/16 07:10:36;;;;;;;5.07;2.83;;;17.90;99.90;;;;;;4939383;29;20052;-76
2021/05/16 07:13:02;;;;;;;7.10;3.20;;;17.90;99.90;;;;;;4939318;29;20417;-75
2021/05/16 07:15:28;;;;;;;3.90;2.13;;;18.00;99.90;;;;;;4943466;29;20482;-75
2021/05/16 07:17:54;;;;;;;4.53;1.98;;;17.90;99.90;;;;;;4954143;29;20042;-74
2021/05/16 07:20:22;;;;;;;5.20;2.58;;;17.90;99.90;;;;;;4958265;29;20027;-74
2021/05/16 07:22:51;;;;;;;4.63;2.38;;;18.00;99.90;;;;;;4958613;29;20421;-73
2021/05/16 07:25:20;;;;;;;3.22;2.20;;;18.00;99.90;;;;;;4948881;29;20099;-73
2021/05/16 07:27:47;;;;;;;5.00;2.53;;;18.10;99.90;;;;;;4948017;29;20047;-73
2021/05/16 07:30:14;;;;;;;5.13;2.30;;;18.10;99.90;;;;;;4946564;29;20032;-72
2021/05/16 07:32:40;;;;;;;5.00;2.30;;;18.20;99.90;;;;;;4921798;29;20044;-73
2021/05/16 07:35:07;;;;;;;5.55;2.20;;;18.20;99.90;;;;;;4938971;29;20398;-78
2021/05/16 07:37:33;;;;;;;5.07;2.42;;;18.30;99.90;;;;;;4939448;29;20082;-72
2021/05/16 07:40:00;;;;;;;4.15;2.20;;;18.20;99.90;;;;;;4938671;29;20028;-75
2021/05/16 07:42:26;;;;;;;3.45;2.20;;;18.20;99.90;;;;;;4938727;29;20020;-73
2021/05/16 07:44:52;;;;;;;5.95;2.30;;;18.30;99.90;;;;;;4938097;29;20020;-72
2021/05/16 07:47:18;;;;;;;5.53;2.70;;;18.20;99.90;;;;;;4939065;29;20110;-74
2021/05/16 07:49:45;;;;;;;4.85;2.20;;;18.30;99.90;;;;;;4938580;29;20510;-74
2021/05/16 07:52:11;;;;;;;3.65;2.63;;;18.10;99.90;;;;;;4921882;29;20058;-74
2021/05/16 07:54:37;;;;;;;4.60;3.10;;;18.20;99.90;;;;;;4921434;29;20541;-74
2021/05/16 07:57:04;;;;;;;6.05;2.90;;;18.10;99.90;;;;;;4938667;29;20015;-74
2021/05/16 07:59:33;;;;;;;5.13;2.95;;;18.00;99.90;;;;;;4938630;29;20087;-75
2021/05/16 08:02:00;;;;;;;4.50;2.28;;;18.00;99.90;;;;;;4921254;29;20024;-76
2021/05/16 08:04:26;;;;;;;4.45;2.40;;;18.00;99.90;;;;;;4921341;29;20024;-75
2021/05/16 08:06:52;;;;;;;6.75;2.40;;;18.10;99.90;;;;;;4938045;29;20034;-74
2021/05/16 08:09:18;;;;;;;8.10;3.58;;;18.10;99.90;;;;;;4938589;29;20028;-74
2021/05/16 08:11:44;;;;;;;4.05;2.90;;;18.30;99.90;;;;;;4920066;29;20032;-74
2021/05/16 08:14:10;;;;;;;5.32;3.00;;;18.30;99.90;;;;;;4938335;29;20028;-75
2021/05/16 08:16:36;;;;;;;5.32;2.90;;;18.40;99.90;;;;;;4942419;29;20390;-74
2021/05/16 08:19:02;;;;;;;3.90;2.33;;;18.60;99.90;;;;;;4945574;29;20031;-73
2021/05/16 08:21:28;;;;;;;4.22;2.20;;;18.50;99.90;;;;;;4947633;29;20069;-73
2021/05/16 08:23:54;;;;;;;4.95;2.30;;;18.50;99.70;;;;;;4929452;29;20494;-73
2021/05/16 08:26:20;;;;;;;4.13;2.40;;;18.60;99.80;;;;;;4945670;29;20023;-74
2021/05/16 08:28:46;;;;;;;3.95;2.40;;;18.50;98.40;;;;;;4947376;28;20105;-72
2021/05/16 08:31:12;;;;;;;7.70;5.28;;;18.40;99.90;;;;;;4954858;29;20035;-74
2021/05/16 08:33:37;;;;;;;5.80;3.35;;;18.50;99.90;;;;;;4957002;29;20031;-75
2021/05/16 08:36:04;;;;;;;4.10;2.20;;;18.70;99.90;;;;;;4956716;29;20039;-74
2021/05/16 08:38:30;;;;;;;5.78;2.45;;;18.60;99.60;;;;;;4956981;29;20029;-74
2021/05/16 08:40:56;;;;;;;5.80;2.53;;;18.60;99.80;;;;;;4956725;29;20027;-73
2021/05/16 08:43:22;;;;;;;4.13;2.42;;;18.50;98.50;;;;;;4956818;29;20019;-74
2021/05/16 08:45:48;;;;;;;4.45;2.20;;;18.50;98.20;;;;;;4956908;29;20027;-75
2021/05/16 08:48:14;;;;;;;3.97;2.30;;;18.40;98.50;;;;;;4957043;29;20019;-75
2021/05/16 08:50:40;;;;;;;5.38;2.58;;;18.40;99.10;;;;;;4956331;29;20059;-77
2021/05/16 08:53:07;;;;;;;4.35;2.22;;;18.40;98.90;;;;;;4956713;29;20027;-78
2021/05/16 08:55:36;;;;;;;9.05;3.60;;;18.30;99.00;;;;;;4956614;29;20027;-76
2021/05/16 08:58:03;;;;;;;5.82;3.30;;;18.20;99.00;;;;;;4956051;29;20023;-77
2021/05/16 09:00:32;;;;;;;5.18;2.90;;;18.20;99.90;;;;;;4956775;29;20498;-75
2021/05/16 09:03:13;;;;;;;3.97;2.05;;;18.20;99.90;;;;;;4956583;29;20094;-77
2021/05/16 09:05:51;;;;;;;5.47;2.08;;;18.20;99.90;;;;;;4956608;29;20090;-77
2021/05/16 09:08:23;;;;;;;5.53;2.05;;;18.10;99.70;;;;;;4956749;29;20023;-79
2021/05/16 09:10:57;;;;;;;7.22;2.60;;;18.10;99.90;;;;;;4955177;29;20031;-76
2021/05/16 09:13:53;;;;;;;4.78;2.42;;;18.20;99.90;;;;;;4956530;29;20405;-78
2021/05/16 09:16:19;;;;;;;3.78;2.40;;;18.10;99.70;;;;;;4955508;29;20067;-78
2021/05/16 09:18:55;;;;;;;3.92;3.00;;;18.20;99.90;;;;;;4954719;29;20028;-79
2021/05/16 09:21:31;;;;;;;4.18;2.70;;;18.30;99.90;;;;;;4956471;29;20470;-78
2021/05/16 09:24:00;;;;;;;6.13;3.10;;;18.50;99.90;;;;;;4956412;29;20031;-78
2021/05/16 09:26:38;;;;;;;4.80;2.65;;;18.70;99.90;;;;;;4956369;29;20074;-78
2021/05/16 09:29:21;;;;;;;4.85;2.50;;;18.70;99.40;;;;;;5111828;27;20402;-77
2021/05/16 09:31:47;;;;;;;7.50;2.80;;;;;;;;;;5110056;28;20053;-78
2021/05/16 09:34:14;;;;;;;4.20;2.50;;;19.70;99.90;;;;;;5111390;28;20072;-79
2021/05/16 09:36:42;;;;;;;6.88;2.50;;;20.00;97.90;;;;;;5111302;28;20020;-79
2021/05/16 09:39:28;;;;;;;5.30;2.70;;;20.40;97.90;;;;;;5111501;28;20039;-77
2021/05/16 09:42:03;;;;;;;4.43;2.45;;;20.60;96.90;;;;;;5112092;28;20024;-78
2021/05/16 09:44:31;;;;;;;5.57;2.50;;;21.20;96.80;;;;;;5110324;28;20419;-78
2021/05/16 09:47:27;;;;;;;5.25;2.72;;;21.40;93.90;;;;;;5111292;28;20019;-79
2021/05/16 09:50:01;;;;;;;6.45;2.20;;;22.00;94.90;;;;;;5031729;28;20064;-76
2021/05/16 09:52:30;;;;;;;8.85;7.10;;;22.50;91.80;;;;;;5048323;28;20043;-79
2021/05/16 09:55:06;;;;;;;12.35;9.90;;;22.40;92.30;;;;;;5048562;28;20033;-79
2021/05/16 09:57:37;;;;;;;3.75;2.40;;;22.70;92.30;;;;;;5031659;28;20028;-79
2021/05/16 10:00:13;;;;;;;5.18;2.30;;;22.80;93.70;;;;;;5048393;28;20095;-77
2021/05/16 10:02:40;;;;;;;4.70;2.42;;;22.60;92.70;;;;;;5047916;28;20025;-75
2021/05/16 10:05:09;;;;;;;3.55;2.30;;;22.50;93.00;;;;;;5031291;28;20025;-75
2021/05/16 10:07:37;;;;;;;3.38;2.38;;;22.60;93.20;;;;;;5048386;28;20159;-76
2021/05/16 10:10:07;;;;;;;6.10;4.25;;;22.90;92.60;;;;;;5047219;28;20041;-72
2021/05/16 10:12:35;;;;;;;6.50;3.17;;;22.90;92.50;;;;;;5047794;28;20064;-70
2021/05/16 10:15:08;;;;;;;6.80;2.58;;;22.50;91.80;;;;;;5047665;28;20021;-71
2021/05/16 10:17:36;;;;;;;7.70;3.05;;;22.70;93.10;;;;;;5048195;28;20025;-75
2021/05/16 10:20:13;;;;;;;5.57;4.38;;;22.50;92.80;;;;;;5048195;28;20531;-75
2021/05/16 10:22:40;;;;;;;5.05;2.88;;;22.60;90.40;;;;;;5048099;28;20108;-72
2021/05/16 10:25:07;;;;;;;4.88;2.72;;;23.30;93.90;;;;;;5049905;28;20021;-76
2021/05/16 10:27:46;;;;;;;2.75;2.38;;;23.20;92.80;;;;;;5110250;28;20512;-71
2021/05/16 10:30:17;;;;;;;4.05;2.60;;;23.00;91.80;;;;;;5110402;28;20110;-78
2021/05/16 10:32:46;;;;;;;7.10;2.45;;;22.60;91.50;;;;;;5109850;28;20031;-74
2021/05/16 10:35:13;;;;;;;6.25;2.83;;;22.30;91.00;;;;;;5110226;28;20063;-79
2021/05/16 10:37:56;;;;;;;4.68;2.50;;;22.10;91.50;;;;;;5110257;28;20020;-76
2021/05/16 10:40:42;;;;;;;3.28;2.08;;;22.10;93.50;;;;;;5097484;28;20047;-79
2021/05/16 10:43:26;;;;;;;5.05;2.20;;;22.00;90.90;;;;;;5096451;28;20028;-78
2021/05/16 10:45:52;;;;;;;4.68;2.55;;;21.80;93.00;;;;;;5095102;28;20028;-77
2021/05/16 10:48:28;;;;;;;4.47;2.80;;;21.70;94.10;;;;;;5096405;28;20024;-75
2021/05/16 10:51:03;;;;;;;4.28;2.60;;;21.60;94.50;;;;;;5096924;28;20385;-72
2021/05/16 10:53:42;;;;;;;5.32;2.88;;;21.50;94.20;;;;;;5096613;28;20024;-73
2021/05/16 10:56:20;;;;;;;5.63;2.95;;;21.40;95.10;;;;;;5096643;28;20051;-81
2021/05/16 10:58:48;;;;;;;5.80;3.47;;;21.20;96.00;;;;;;5096098;28;20526;-81
2021/05/16 11:01:30;;;;;;;5.97;3.20;;;21.10;96.40;;;;;;5096055;28;20024;-73
2021/05/16 11:03:58;;;;;;;4.85;3.08;;;21.00;96.20;;;;;;5094743;28;20035;-71
2021/05/16 11:06:36;;;;;;;7.75;3.20;;;20.90;96.50;;;;;;5095675;28;20027;-73
2021/05/16 11:09:03;;;;;;;5.40;3.20;;;20.90;97.00;;;;;;5095978;28;20542;-77
2021/05/16 11:11:40;;;;;;;5.15;3.67;;;20.80;97.30;;;;;;5095608;28;20020;-72
2021/05/16 11:14:26;;;;;;;6.43;3.47;;;20.70;97.50;;;;;;5095790;28;20412;-72
2021/05/16 11:16:56;;;;;;;7.38;4.07;;;20.50;98.60;;;;;;5094720;28;20369;-73
2021/05/16 11:19:24;;;;;;;6.90;3.67;;;20.30;98.90;;;;;;5095415;28;20036;-73
2021/05/16 11:21:51;;;;;;;5.00;3.25;;;20.30;98.70;;;;;;5093990;28;20026;-77
2021/05/16 11:24:34;;;;;;;4.22;3.50;;;20.20;98.70;;;;;;5095854;28;20016;-77
2021/05/16 11:27:18;;;;;;;6.68;3.33;;;20.20;99.20;;;;;;5093883;28;20063;-78
2021/05/16 11:29:44;;;;;;;7.68;3.70;;;20.30;98.50;;;;;;5096011;28;20020;-73
2021/05/16 11:32:11;;;;;;;5.22;3.53;;;20.30;98.70;;;;;;5093758;28;20127;-75
2021/05/16 11:34:37;;;;;;;5.13;3.38;;;20.30;98.70;;;;;;5094298;28;20028;-77
2021/05/16 11:37:17;;;;;;;5.20;3.55;;;20.40;99.00;;;;;;5094101;28;20108;-75
2021/05/16 11:39:43;;;;;;;6.18;3.40;;;21.30;97.90;;;;;;5095620;28;20382;-79
2021/05/16 11:42:09;;;;;;;7.55;3.38;;;22.40;97.10;;;;;;5095155;28;20020;-78
2021/05/16 11:44:35;;;;;;;6.45;3.20;;;23.00;94.00;;;;;;5094212;28;20042;-78
2021/05/16 11:47:01;;;;;;;4.72;2.65;;;23.10;93.60;;;;;;5095330;28;20036;-80
2021/05/16 11:49:30;;;;;;;4.53;2.50;;;22.80;91.20;;;;;;5095459;28;20020;-79
2021/05/16 11:51:58;;;;;;;5.30;3.00;;;22.80;92.30;;;;;;5094349;28;20020;-78
2021/05/16 11:54:42;;;;;;;3.33;2.30;;;22.80;92.80;;;;;;5095224;28;20031;-77
2021/05/16 11:57:14;;;;;;;4.30;2.30;;;22.90;92.20;;;;;;5095066;28;20039;-78
2021/05/16 11:59:40;;;;;;;3.90;2.33;;;23.20;92.80;;;;;;5095534;28;20044;-73
2021/05/16 12:02:06;;;;;;;4.10;2.13;;;23.10;90.70;;;;;;5094921;28;20055;-78
2021/05/16 12:04:39;;;;;;;3.50;2.00;;;22.90;91.10;;;;;;5095468;28;20411;-72
2021/05/16 12:07:05;;;;;;;3.67;2.05;;;22.70;90.30;;;;;;5094357;28;20021;-71
2021/05/16 12:09:38;;;;;;;3.40;2.08;;;23.20;91.30;;;;;;5094911;28;20051;-79
2021/05/16 12:12:18;;;;;;;17.37;7.53;;;22.80;84.20;;;;;;5095023;28;20104;-75
2021/05/16 12:14:45;;;;;;;65.03;26.42;;;22.80;91.20;;;;;;5093655;28;20313;-72
2021/05/16 12:17:13;;;;;;;17.35;7.15;;;22.70;90.40;;;;;;5094130;28;20027;-72
2021/05/16 12:19:40;;;;;;;6.97;2.63;;;22.70;90.60;;;;;;5094032;28;20016;-73
2021/05/16 12:22:08;;;;;;;8.38;3.75;;;22.90;90.50;;;;;;5093624;28;20023;-73
2021/05/16 12:24:37;;;;;;;5.07;2.60;;;23.50;90.80;;;;;;5094011;28;20020;-73
2021/05/16 12:27:04;;;;;;;7.05;3.13;;;23.90;85.00;;;;;;5093566;28;20024;-76
2021/05/16 12:29:31;;;;;;;5.00;2.33;;;24.30;86.90;;;;;;5093788;28;20025;-72
2021/05/16 12:31:57;;;;;;;6.38;2.67;;;24.10;78.20;;;;;;5094214;28;20013;-73
2021/05/16 12:34:24;;;;;;;4.30;2.65;;;23.80;79.00;;;;;;5092212;28;20039;-73
2021/05/16 12:36:55;;;;;;;4.32;2.50;;;24.00;79.70;;;;;;5092768;28;20497;-72
2021/05/16 12:39:56;;;;;;;5.00;2.95;;;24.10;85.50;;;;;;5094218;28;20020;-73
2021/05/16 12:42:28;;;;;;;5.55;2.17;;;23.90;79.30;;;;;;5012086;28;20589;-73
2021/05/16 12:44:56;;;;;;;3.72;2.20;;;24.20;82.50;;;;;;5011922;28;20034;-76
2021/05/16 12:47:26;;;;;;;4.28;2.50;;;23.70;81.90;;;;;;5012086;28;20022;-80